createdAt,value
2017-06-12T00:00:29.439Z,22.60
2017-06-12T00:02:56.597Z,22.60
2017-06-12T00:05:23.534Z,22.60
2017-06-12T00:07:51.553Z,22.60
2017-06-12T00:10:17.767Z,22.60
2017-06-12T00:12:43.950Z,22.60
2017-06-12T00:15:10.382Z,22.60
2017-06-12T00:17:37.111Z,22.60
2017-06-12T00:20:03.419Z,22.60
2017-06-12T00:22:31.991Z,22.60
2017-06-12T00:24:58.289Z,22.50
2017-06-12T00:27:25.669Z,22.50
2017-06-12T00:29:51.968Z,22.50
2017-06-12T00:32:20.701Z,22.40
2017-06-12T00:34:47.695Z,22.30
2017-06-12T00:37:14.037Z,22.30
2017-06-12T00:39:40.977Z,22.30
2017-06-12T00:42:07.172Z,22.30
2017-06-12T00:44:33.482Z,22.30
2017-06-12T00:46:59.948Z,22.30
2017-06-12T00:49:26.200Z,22.30
2017-06-12T00:51:52.382Z,22.30
2017-06-12T00:54:18.662Z,22.30
2017-06-12T00:56:44.845Z,22.30
2017-06-12T00:59:11.003Z,22.40
2017-06-12T01:01:37.215Z,22.40
2017-06-12T01:04:03.393Z,22.50
2017-06-12T01:06:29.595Z,22.50
2017-06-12T01:08:55.802Z,22.60
2017-06-12T01:11:21.973Z,22.50
2017-06-12T01:13:48.907Z,22.40
2017-06-12T01:16:15.921Z,22.50
2017-06-12T01:18:42.124Z,22.50
2017-06-12T01:21:08.276Z,22.50
2017-06-12T01:23:34.394Z,22.50
2017-06-12T01:26:00.588Z,22.50
2017-06-12T01:28:26.738Z,22.40
2017-06-12T01:30:52.964Z,22.40
2017-06-12T01:33:19.510Z,22.40
2017-06-12T01:35:46.544Z,22.50
2017-06-12T01:38:13.450Z,22.40
2017-06-12T01:40:40.400Z,22.40
2017-06-12T01:43:07.373Z,22.30
2017-06-12T01:45:33.631Z,22.30
2017-06-12T01:47:59.806Z,22.30
2017-06-12T01:50:26.766Z,22.30
2017-06-12T01:52:52.970Z,22.30
2017-06-12T01:55:19.948Z,22.30
2017-06-12T01:57:46.178Z,22.40
2017-06-12T02:00:12.414Z,22.40
2017-06-12T02:02:38.615Z,22.40
2017-06-12T02:05:05.655Z,22.50
2017-06-12T02:07:32.586Z,22.50
2017-06-12T02:09:58.747Z,22.50
2017-06-12T02:12:24.990Z,22.60
2017-06-12T02:14:51.165Z,22.60
2017-06-12T02:17:18.054Z,22.60
2017-06-12T02:19:44.234Z,22.60
2017-06-12T02:22:10.487Z,22.60
2017-06-12T02:24:37.474Z,22.60
2017-06-12T02:27:03.665Z,22.50
2017-06-12T02:29:30.640Z,22.60
2017-06-12T02:31:56.814Z,22.50
2017-06-12T02:34:22.973Z,22.60
2017-06-12T02:36:49.965Z,22.50
2017-06-12T02:39:16.155Z,22.50
2017-06-12T02:41:43.913Z,22.50
2017-06-12T02:44:10.840Z,22.50
2017-06-12T02:46:37.033Z,22.50
2017-06-12T02:49:03.191Z,22.40
2017-06-12T02:51:29.414Z,22.40
2017-06-12T02:53:55.558Z,22.30
2017-06-12T02:56:22.448Z,22.30
2017-06-12T02:58:48.611Z,22.30
2017-06-12T03:01:14.796Z,22.20
2017-06-12T03:03:40.965Z,22.20
2017-06-12T03:06:07.138Z,22.10
2017-06-12T03:08:33.319Z,22.00
2017-06-12T03:10:59.501Z,22.00
2017-06-12T03:13:25.651Z,22.00
2017-06-12T03:15:51.866Z,22.00
2017-06-12T03:18:18.027Z,22.10
2017-06-12T03:20:44.234Z,22.10
2017-06-12T03:23:10.459Z,22.10
2017-06-12T03:25:36.650Z,22.10
2017-06-12T03:28:03.606Z,22.00
2017-06-12T03:30:29.813Z,22.10
2017-06-12T03:32:55.980Z,22.00
2017-06-12T03:35:22.158Z,22.10
2017-06-12T03:37:48.346Z,22.10
2017-06-12T03:40:14.615Z,22.10
2017-06-12T03:42:40.846Z,22.10
2017-06-12T03:45:07.127Z,22.10
2017-06-12T03:47:33.296Z,22.10
2017-06-12T03:49:59.522Z,22.10
2017-06-12T03:52:25.686Z,22.10
2017-06-12T03:54:51.883Z,22.10
2017-06-12T03:57:18.085Z,22.00
2017-06-12T03:59:44.300Z,22.00
2017-06-12T04:02:10.486Z,22.00
2017-06-12T04:04:37.462Z,22.00
2017-06-12T04:07:03.730Z,22.00
2017-06-12T04:09:29.957Z,22.00
2017-06-12T04:11:56.595Z,22.00
2017-06-12T04:14:23.540Z,22.00
2017-06-12T04:16:49.941Z,22.10
2017-06-12T04:19:16.355Z,22.10
2017-06-12T04:21:42.884Z,22.20
2017-06-12T04:24:09.776Z,22.30
2017-06-12T04:26:35.950Z,22.40
2017-06-12T04:29:02.840Z,22.90
2017-06-12T04:31:28.991Z,23.10
2017-06-12T04:33:55.930Z,23.30
2017-06-12T04:36:22.114Z,23.50
2017-06-12T04:38:48.350Z,23.50
2017-06-12T04:41:14.522Z,23.40
2017-06-12T04:43:40.676Z,23.20
2017-06-12T04:46:07.280Z,23.30
2017-06-12T04:48:33.466Z,23.20
2017-06-12T04:50:59.986Z,23.10
2017-06-12T04:53:26.922Z,23.10
2017-06-12T04:55:53.896Z,23.20
2017-06-12T04:58:20.046Z,23.40
2017-06-12T05:00:46.261Z,23.50
2017-06-12T05:03:12.454Z,23.20
2017-06-12T05:05:39.657Z,23.50
2017-06-12T05:08:05.827Z,23.40
2017-06-12T05:10:32.794Z,23.50
2017-06-12T05:12:59.716Z,24.10
2017-06-12T05:15:25.871Z,24.10
2017-06-12T05:17:52.778Z,24.20
2017-06-12T05:20:18.974Z,24.10
2017-06-12T05:22:45.172Z,23.90
2017-06-12T05:25:12.094Z,23.70
2017-06-12T05:27:38.664Z,23.70
2017-06-12T05:30:05.242Z,23.70
2017-06-12T05:32:31.450Z,23.80
2017-06-12T05:34:58.429Z,23.80
2017-06-12T05:37:24.623Z,23.90
2017-06-12T05:39:50.863Z,24.10
2017-06-12T05:42:17.014Z,24.30
2017-06-12T05:44:43.203Z,24.80
2017-06-12T05:47:09.395Z,22.90
2017-06-12T05:49:36.289Z,25.20
2017-06-12T05:52:02.533Z,25.20
2017-06-12T05:54:28.732Z,25.30
2017-06-12T05:57:09.829Z,25.40
2017-06-12T05:59:36.006Z,25.20
2017-06-12T06:02:02.939Z,25.00
2017-06-12T06:04:29.100Z,25.10
2017-06-12T06:06:55.322Z,25.40
2017-06-12T06:09:21.551Z,26.10
2017-06-12T06:11:47.761Z,25.90
2017-06-12T06:14:14.680Z,25.60
2017-06-12T06:16:40.879Z,25.50
2017-06-12T06:19:07.080Z,25.40
2017-06-12T06:21:33.981Z,25.30
2017-06-12T06:24:00.200Z,25.20
2017-06-12T06:26:26.326Z,25.10
2017-06-12T06:28:52.484Z,25.10
2017-06-12T06:31:18.659Z,24.80
2017-06-12T06:33:44.844Z,24.70
2017-06-12T06:36:11.791Z,24.30
2017-06-12T06:38:38.690Z,24.30
2017-06-12T06:41:04.854Z,24.30
2017-06-12T06:43:31.042Z,24.40
2017-06-12T06:45:57.200Z,24.40
2017-06-12T06:48:23.527Z,24.50
2017-06-12T06:50:50.119Z,24.60
2017-06-12T06:53:16.347Z,24.70
2017-06-12T06:55:42.572Z,24.60
2017-06-12T06:58:08.774Z,24.80
2017-06-12T07:00:35.713Z,24.80
2017-06-12T07:03:01.892Z,24.80
2017-06-12T07:05:28.023Z,24.80
2017-06-12T07:07:54.146Z,25.20
2017-06-12T07:10:20.361Z,25.30
2017-06-12T07:12:46.544Z,25.80
2017-06-12T07:15:12.755Z,26.00
2017-06-12T07:17:38.938Z,26.00
2017-06-12T07:20:20.074Z,26.50
2017-06-12T07:22:46.241Z,26.90
2017-06-12T07:25:12.427Z,27.70
2017-06-12T07:27:38.615Z,27.90
2017-06-12T07:30:04.854Z,28.20
2017-06-12T07:32:31.062Z,28.30
2017-06-12T07:34:57.234Z,27.90
2017-06-12T07:37:23.436Z,27.60
2017-06-12T07:39:49.642Z,27.50
2017-06-12T07:42:15.843Z,27.40
2017-06-12T07:44:42.051Z,27.40
2017-06-12T07:47:08.241Z,27.00
2017-06-12T07:49:34.462Z,27.10
2017-06-12T07:52:00.639Z,26.80
2017-06-12T07:54:26.831Z,26.60
2017-06-12T07:56:53.060Z,27.20
2017-06-12T07:59:19.288Z,28.90
2017-06-12T08:01:45.527Z,29.10
2017-06-12T08:04:11.725Z,30.10
2017-06-12T08:06:37.929Z,30.20
2017-06-12T08:09:04.161Z,30.10
2017-06-12T08:11:31.080Z,30.40
2017-06-12T08:13:57.264Z,30.30
2017-06-12T08:16:23.462Z,30.10
2017-06-12T08:18:50.407Z,29.10
2017-06-12T08:21:17.343Z,28.70
2017-06-12T08:23:43.559Z,28.60
2017-06-12T08:26:09.832Z,28.50
2017-06-12T08:28:36.056Z,28.60
2017-06-12T08:31:03.007Z,28.50
2017-06-12T08:33:29.255Z,28.60
2017-06-12T08:35:55.447Z,28.60
2017-06-12T08:38:22.401Z,28.60
2017-06-12T08:40:49.353Z,28.60
2017-06-12T08:43:16.313Z,28.80
2017-06-12T08:45:42.547Z,29.00
2017-06-12T08:48:08.727Z,28.90
2017-06-12T08:50:34.916Z,29.00
2017-06-12T08:53:01.113Z,29.10
2017-06-12T08:55:28.021Z,29.20
2017-06-12T08:57:54.247Z,29.10
2017-06-12T09:00:20.394Z,29.20
2017-06-12T09:02:46.571Z,29.30
2017-06-12T09:05:12.775Z,29.30
2017-06-12T09:07:38.998Z,29.20
2017-06-12T09:10:05.952Z,28.90
2017-06-12T09:12:32.155Z,28.90
2017-06-12T09:14:59.080Z,28.70
2017-06-12T09:17:25.282Z,28.60
2017-06-12T09:19:51.450Z,28.60
2017-06-12T09:22:17.606Z,28.50
2017-06-12T09:24:43.803Z,29.00
2017-06-12T09:27:09.992Z,29.20
2017-06-12T09:29:36.158Z,29.20
2017-06-12T09:32:02.315Z,28.90
2017-06-12T09:34:28.487Z,29.00
2017-06-12T09:36:54.757Z,28.80
2017-06-12T09:39:21.676Z,28.90
2017-06-12T09:41:47.894Z,28.90
2017-06-12T09:44:14.055Z,29.10
2017-06-12T09:46:40.263Z,29.10
2017-06-12T09:49:06.471Z,29.10
2017-06-12T09:51:32.655Z,29.40
2017-06-12T09:53:59.603Z,29.90
2017-06-12T09:56:26.505Z,30.00
2017-06-12T09:58:52.701Z,29.90
2017-06-12T10:01:18.859Z,30.40
2017-06-12T10:03:45.057Z,30.10
2017-06-12T10:06:11.261Z,29.70
2017-06-12T10:08:38.171Z,29.70
2017-06-12T10:11:04.362Z,29.70
2017-06-12T10:13:30.639Z,29.40
2017-06-12T10:15:57.172Z,29.90
2017-06-12T10:18:23.360Z,30.20
2017-06-12T10:20:49.613Z,30.30
2017-06-12T10:23:16.692Z,30.20
2017-06-12T10:25:43.640Z,30.60
2017-06-12T10:28:10.601Z,30.30
2017-06-12T10:30:52.121Z,30.30
2017-06-12T10:33:18.314Z,30.30
2017-06-12T10:35:45.207Z,30.30
2017-06-12T10:38:11.425Z,30.60
2017-06-12T10:40:37.588Z,30.70
2017-06-12T10:43:03.976Z,30.70
2017-06-12T10:45:30.142Z,30.50
2017-06-12T10:47:56.322Z,30.50
2017-06-12T10:50:22.481Z,30.90
2017-06-12T10:52:48.822Z,30.90
2017-06-12T10:55:14.980Z,30.90
2017-06-12T10:57:41.938Z,31.10
2017-06-12T11:00:08.094Z,31.20
2017-06-12T11:02:35.013Z,31.10
2017-06-12T11:05:01.192Z,31.00
2017-06-12T11:07:28.123Z,31.40
2017-06-12T11:09:54.291Z,31.30
2017-06-12T11:12:21.277Z,31.60
2017-06-12T11:14:47.480Z,31.80
2017-06-12T11:17:14.450Z,32.00
2017-06-12T11:19:40.721Z,31.80
2017-06-12T11:22:06.956Z,32.00
2017-06-12T11:24:39.143Z,32.40
2017-06-12T11:27:06.101Z,32.10
2017-06-12T11:29:37.087Z,31.40
2017-06-12T11:32:08.196Z,31.40
2017-06-12T11:34:34.397Z,30.80
2017-06-12T11:37:01.385Z,30.90
2017-06-12T11:39:27.593Z,30.90
2017-06-12T11:41:54.602Z,30.80
2017-06-12T11:44:20.863Z,30.50
2017-06-12T11:46:47.832Z,30.40
2017-06-12T11:49:14.626Z,30.50
2017-06-12T11:51:40.869Z,30.50
2017-06-12T11:54:07.059Z,30.60
2017-06-12T11:56:35.509Z,31.20
2017-06-12T11:59:01.852Z,31.20
2017-06-12T12:01:28.952Z,31.30
2017-06-12T12:03:56.505Z,31.20
2017-06-12T12:06:23.465Z,30.90
2017-06-12T12:08:49.842Z,30.80
2017-06-12T12:13:44.165Z,30.90
2017-06-12T12:16:10.629Z,30.90
2017-06-12T12:18:37.230Z,30.80
2017-06-12T12:21:03.759Z,30.20
2017-06-12T12:23:30.095Z,29.90
2017-06-12T12:25:56.287Z,30.00
2017-06-12T12:28:23.262Z,29.90
2017-06-12T12:30:49.508Z,29.60
2017-06-12T12:33:17.506Z,29.60
2017-06-12T12:35:44.043Z,29.60
2017-06-12T12:38:11.862Z,29.50
2017-06-12T12:40:38.410Z,29.60
2017-06-12T12:43:05.684Z,29.60
2017-06-12T12:45:31.891Z,29.10
2017-06-12T12:47:58.137Z,28.90
2017-06-12T12:50:24.422Z,28.80
2017-06-12T12:52:50.624Z,28.80
2017-06-12T12:55:16.830Z,28.90
2017-06-12T12:57:43.049Z,28.60
2017-06-12T13:00:11.154Z,28.70
2017-06-12T13:02:37.362Z,28.50
2017-06-12T13:05:03.804Z,28.40
2017-06-12T13:07:30.123Z,28.80
2017-06-12T13:09:56.354Z,28.60
2017-06-12T13:12:22.550Z,28.60
2017-06-12T13:14:48.839Z,28.50
2017-06-12T13:17:15.927Z,28.60
2017-06-12T13:19:42.146Z,28.50
2017-06-12T13:22:08.297Z,28.50
2017-06-12T13:24:34.525Z,28.70
2017-06-12T13:27:00.672Z,28.80
2017-06-12T13:29:26.859Z,28.80
2017-06-12T13:31:53.074Z,28.60
2017-06-12T13:34:19.285Z,28.50
2017-06-12T13:36:45.498Z,26.20
2017-06-12T13:39:11.702Z,28.50
2017-06-12T13:41:37.884Z,28.80
2017-06-12T13:44:04.801Z,28.40
2017-06-12T13:46:31.019Z,28.20
2017-06-12T13:48:57.818Z,28.20
2017-06-12T13:51:24.118Z,28.10
2017-06-12T13:53:51.034Z,27.90
2017-06-12T13:56:17.259Z,27.80
2017-06-12T13:58:43.488Z,27.80
2017-06-12T14:01:09.706Z,27.70
2017-06-12T14:03:35.893Z,27.80
2017-06-12T14:06:02.127Z,27.80
2017-06-12T14:08:28.303Z,27.60
2017-06-12T14:10:54.499Z,27.40
2017-06-12T14:13:20.786Z,27.30
2017-06-12T14:15:46.980Z,27.30
2017-06-12T14:18:13.138Z,27.40
2017-06-12T14:20:54.994Z,27.40
2017-06-12T14:23:21.546Z,27.40
2017-06-12T14:25:47.748Z,27.20
2017-06-12T14:28:13.968Z,27.00
2017-06-12T14:30:40.202Z,26.80
2017-06-12T14:33:06.448Z,26.70
2017-06-12T14:35:32.682Z,26.50
2017-06-12T14:37:59.220Z,26.40
2017-06-12T14:40:25.386Z,26.30
2017-06-12T14:42:52.351Z,26.20
2017-06-12T14:45:19.388Z,26.30
2017-06-12T14:47:46.306Z,26.40
2017-06-12T14:50:12.590Z,26.30
2017-06-12T14:52:38.779Z,26.40
2017-06-12T14:55:04.958Z,26.30
2017-06-12T14:57:31.189Z,26.20
2017-06-12T14:59:57.371Z,26.20
2017-06-12T15:02:24.293Z,26.20
2017-06-12T15:04:51.531Z,25.80
2017-06-12T15:07:17.938Z,26.20
2017-06-12T15:09:44.503Z,26.10
2017-06-12T15:12:10.708Z,26.00
2017-06-12T15:14:36.932Z,25.90
2017-06-12T15:17:03.523Z,25.90
2017-06-12T15:19:29.734Z,25.90
2017-06-12T15:21:55.923Z,25.60
2017-06-12T15:24:22.139Z,25.70
2017-06-12T15:26:48.326Z,25.80
2017-06-12T15:29:14.495Z,25.80
2017-06-12T15:31:40.750Z,25.70
2017-06-12T15:34:06.971Z,25.70
2017-06-12T15:36:33.204Z,25.60
2017-06-12T15:38:59.430Z,25.60
2017-06-12T15:41:25.982Z,25.60
2017-06-12T15:43:52.233Z,25.50
2017-06-12T15:46:18.483Z,25.50
2017-06-12T15:48:44.681Z,25.40
2017-06-12T15:51:10.861Z,25.40
2017-06-12T15:53:37.448Z,25.40
2017-06-12T15:56:03.683Z,25.40
2017-06-12T15:58:29.893Z,25.30
2017-06-12T16:00:56.093Z,25.40
2017-06-12T16:03:22.267Z,25.30
2017-06-12T16:05:48.464Z,25.30
2017-06-12T16:08:14.666Z,25.30
2017-06-12T16:10:40.870Z,25.30
2017-06-12T16:13:07.088Z,25.30
2017-06-12T16:15:33.274Z,25.30
2017-06-12T16:18:00.828Z,25.20
2017-06-12T16:20:27.105Z,25.20
2017-06-12T16:22:53.284Z,25.10
2017-06-12T16:25:19.467Z,25.20
2017-06-12T16:27:45.701Z,25.10
2017-06-12T16:30:11.871Z,25.20
2017-06-12T16:32:38.087Z,25.10
2017-06-12T16:35:04.302Z,25.20
2017-06-12T16:37:31.263Z,25.30
2017-06-12T16:39:57.539Z,25.30
2017-06-12T16:42:23.743Z,25.30
2017-06-12T16:44:50.128Z,25.20
2017-06-12T16:47:16.358Z,25.20
2017-06-12T16:49:42.537Z,25.10
2017-06-12T16:52:08.789Z,25.10
2017-06-12T16:54:35.008Z,25.00
2017-06-12T16:57:01.271Z,24.90
2017-06-12T16:59:28.070Z,25.00
2017-06-12T17:01:54.261Z,25.00
2017-06-12T17:04:21.222Z,25.00
2017-06-12T17:06:47.756Z,25.00
2017-06-12T17:09:13.970Z,24.90
2017-06-12T17:11:40.910Z,24.90
2017-06-12T17:14:08.455Z,24.90
2017-06-12T17:16:35.037Z,24.90
2017-06-12T17:19:01.188Z,24.90
2017-06-12T17:21:27.424Z,24.80
2017-06-12T17:23:53.646Z,24.80
2017-06-12T17:26:20.820Z,24.80
2017-06-12T17:28:47.030Z,24.80
2017-06-12T17:31:13.273Z,24.70
2017-06-12T17:33:39.473Z,24.70
2017-06-12T17:36:06.045Z,24.60
2017-06-12T17:38:32.237Z,24.60
2017-06-12T17:40:58.488Z,24.60
2017-06-12T17:43:24.689Z,24.50
2017-06-12T17:45:50.910Z,24.50
2017-06-12T17:48:17.103Z,24.50
2017-06-12T17:50:44.084Z,24.50
2017-06-12T17:53:10.272Z,24.40
2017-06-12T17:55:36.501Z,24.40
2017-06-12T17:58:02.727Z,24.40
2017-06-12T18:00:28.989Z,24.30
2017-06-12T18:02:55.930Z,24.30
2017-06-12T18:05:22.884Z,24.30
2017-06-12T18:07:49.104Z,24.20
2017-06-12T18:10:16.141Z,24.20
2017-06-12T18:12:43.275Z,24.20
2017-06-12T18:15:09.486Z,24.20
2017-06-12T18:17:35.698Z,24.20
2017-06-12T18:20:01.883Z,24.10
2017-06-12T18:22:28.862Z,24.00
2017-06-12T18:24:55.036Z,23.90
2017-06-12T18:27:22.027Z,23.80
2017-06-12T18:29:48.317Z,23.80
2017-06-12T18:32:14.498Z,19.10
2017-06-12T18:34:40.735Z,23.70
2017-06-12T18:37:07.303Z,23.70
2017-06-12T18:39:33.628Z,23.70
2017-06-12T18:41:59.900Z,23.70
2017-06-12T18:44:26.365Z,23.60
2017-06-12T18:46:52.540Z,23.60
2017-06-12T18:49:19.551Z,23.60
2017-06-12T18:51:45.836Z,23.60
2017-06-12T18:54:12.112Z,23.50
2017-06-12T18:56:38.331Z,23.50
2017-06-12T18:59:04.583Z,23.50
2017-06-12T19:01:31.571Z,23.50
2017-06-12T19:03:57.768Z,23.30
2017-06-12T19:06:24.428Z,23.60
2017-06-12T19:08:51.028Z,23.40
2017-06-12T19:11:17.657Z,23.50
2017-06-12T19:13:44.950Z,23.20
2017-06-12T19:16:11.885Z,23.10
2017-06-12T19:18:38.472Z,23.10
2017-06-12T19:21:04.700Z,23.00
2017-06-12T19:23:30.924Z,23.10
2017-06-12T19:25:57.200Z,23.10
2017-06-12T19:28:23.407Z,23.00
2017-06-12T19:30:49.963Z,22.80
2017-06-12T19:33:16.247Z,22.90
2017-06-12T19:35:42.414Z,22.80
2017-06-12T19:38:08.676Z,22.90
2017-06-12T19:40:37.614Z,22.80
2017-06-12T19:43:03.804Z,22.70
2017-06-12T19:45:30.740Z,22.60
2017-06-12T19:47:57.393Z,22.40
2017-06-12T19:50:24.318Z,22.30
2017-06-12T19:52:51.391Z,22.30
2017-06-12T19:55:17.607Z,22.30
2017-06-12T19:57:45.333Z,22.30
2017-06-12T20:00:13.207Z,22.20
2017-06-12T20:02:39.486Z,22.00
2017-06-12T20:05:06.033Z,21.90
2017-06-12T20:07:34.250Z,22.00
2017-06-12T20:10:00.496Z,22.10
2017-06-12T20:12:26.913Z,22.10
2017-06-12T20:14:53.140Z,22.10
2017-06-12T20:19:51.421Z,22.00
2017-06-12T20:22:18.964Z,22.00
2017-06-12T20:24:45.487Z,21.90
2017-06-12T20:27:11.742Z,21.80
2017-06-12T20:29:38.352Z,21.70
2017-06-12T20:32:05.738Z,21.70
2017-06-12T20:34:32.199Z,21.70
2017-06-12T20:36:58.646Z,21.80
2017-06-12T20:39:25.022Z,21.80
2017-06-12T20:41:51.247Z,21.80
2017-06-12T20:44:18.589Z,21.80
2017-06-12T20:46:44.824Z,21.70
2017-06-12T20:49:12.399Z,21.60
2017-06-12T20:51:39.466Z,21.60
2017-06-12T20:54:06.258Z,21.50
2017-06-12T20:56:32.494Z,21.50
2017-06-12T20:59:00.795Z,21.40
2017-06-12T21:01:27.115Z,21.20
2017-06-12T21:03:53.311Z,21.20
2017-06-12T21:06:19.534Z,21.10
2017-06-12T21:08:46.352Z,21.20
2017-06-12T21:11:12.549Z,21.00
2017-06-12T21:13:38.693Z,21.00
2017-06-12T21:16:04.868Z,21.00
2017-06-12T21:18:31.830Z,20.90
2017-06-12T21:20:58.120Z,20.70
2017-06-12T21:23:24.488Z,20.50
2017-06-12T21:25:51.393Z,20.40
2017-06-12T21:28:17.566Z,20.40
2017-06-12T21:30:43.820Z,20.40
2017-06-12T21:33:10.428Z,20.40
2017-06-12T21:35:37.346Z,20.50
2017-06-12T21:38:03.582Z,20.50
2017-06-12T21:40:29.771Z,20.30
2017-06-12T21:42:55.958Z,20.30
2017-06-12T21:45:22.938Z,20.10
2017-06-12T21:47:49.152Z,20.10
2017-06-12T21:50:15.326Z,19.80
2017-06-12T21:52:41.574Z,19.80
2017-06-12T21:55:07.769Z,19.80
2017-06-12T21:57:33.963Z,20.00
2017-06-12T22:00:00.228Z,20.10
2017-06-12T22:02:26.420Z,20.00
2017-06-12T22:04:52.670Z,19.90
2017-06-12T22:07:20.138Z,19.80
2017-06-12T22:09:46.356Z,19.80
2017-06-12T22:12:12.544Z,19.90
2017-06-12T22:14:39.484Z,20.00
2017-06-12T22:17:06.434Z,19.90
2017-06-12T22:19:33.367Z,20.00
2017-06-12T22:21:59.560Z,20.00
2017-06-12T22:24:25.838Z,20.00
2017-06-12T22:26:52.782Z,20.00
2017-06-12T22:29:19.679Z,19.90
2017-06-12T22:31:45.888Z,19.90
2017-06-12T22:34:12.585Z,19.70
2017-06-12T22:36:39.654Z,19.50
2017-06-12T22:39:06.600Z,19.40
2017-06-12T22:41:33.616Z,19.40
2017-06-12T22:43:59.799Z,19.50
2017-06-12T22:46:26.013Z,19.50
2017-06-12T22:48:52.220Z,19.70
2017-06-12T22:51:18.471Z,19.60
2017-06-12T22:53:44.712Z,19.70
2017-06-12T22:56:10.999Z,19.70
2017-06-12T22:58:37.178Z,19.60
2017-06-12T23:01:03.457Z,19.50
2017-06-12T23:03:29.663Z,19.60
2017-06-12T23:05:55.847Z,19.60
2017-06-12T23:08:22.436Z,19.60
2017-06-12T23:10:48.604Z,19.30
2017-06-12T23:13:15.610Z,19.30
2017-06-12T23:15:42.175Z,19.40
2017-06-12T23:18:09.802Z,19.40
2017-06-12T23:20:36.227Z,19.30
2017-06-12T23:23:02.592Z,19.10
2017-06-12T23:25:28.811Z,19.20
2017-06-12T23:27:55.027Z,19.20
2017-06-12T23:30:21.773Z,19.40
2017-06-12T23:32:47.930Z,19.30
2017-06-12T23:35:16.064Z,19.40
2017-06-12T23:37:43.521Z,19.40
2017-06-12T23:40:09.699Z,19.40
2017-06-12T23:42:36.341Z,19.40
2017-06-12T23:45:03.290Z,19.50
2017-06-12T23:47:29.499Z,19.50
2017-06-12T23:49:56.427Z,19.50
2017-06-12T23:52:22.632Z,19.40
2017-06-12T23:54:48.836Z,19.40
2017-06-12T23:57:15.003Z,19.40
2017-06-12T23:59:41.208Z,19.40
